createdAt,value
2022-12-22T00:00:32.789Z,-2.48
2022-12-22T00:03:40.209Z,-2.50
2022-12-22T00:06:29.363Z,-2.45
2022-12-22T00:09:16.256Z,-2.47
2022-12-22T00:12:04.816Z,-2.43
2022-12-22T00:14:52.675Z,-2.41
2022-12-22T00:17:48.759Z,-2.44
2022-12-22T00:20:39.256Z,-2.45
2022-12-22T00:23:29.637Z,-2.46
2022-12-22T00:26:18.165Z,-2.47
2022-12-22T00:29:06.786Z,-2.51
2022-12-22T00:31:53.887Z,-2.49
2022-12-22T00:34:41.730Z,-2.49
2022-12-22T00:37:33.014Z,-2.47
2022-12-22T00:40:21.156Z,-2.51
2022-12-22T00:43:09.509Z,-2.51
2022-12-22T00:45:57.753Z,-2.51
2022-12-22T00:48:46.201Z,-2.49
2022-12-22T00:51:33.005Z,-2.46
2022-12-22T00:54:21.251Z,-2.48
2022-12-22T00:57:08.260Z,-2.51
2022-12-22T00:59:55.172Z,-2.44
2022-12-22T01:02:43.561Z,-2.47
2022-12-22T01:05:30.731Z,-2.47
2022-12-22T01:08:19.786Z,-2.44
2022-12-22T01:11:07.125Z,-2.49
2022-12-22T01:13:54.612Z,-2.53
2022-12-22T01:16:41.587Z,-2.54
2022-12-22T01:19:28.464Z,-2.59
2022-12-22T01:22:16.151Z,-2.53
2022-12-22T01:25:04.778Z,-2.58
2022-12-22T01:27:51.684Z,-2.58
2022-12-22T01:30:39.047Z,-2.60
2022-12-22T01:33:32.541Z,-2.59
2022-12-22T01:36:19.482Z,-2.61
2022-12-22T01:39:06.319Z,-2.58
2022-12-22T01:41:53.780Z,-2.58
2022-12-22T01:44:40.690Z,-2.60
2022-12-22T01:47:46.187Z,-2.59
2022-12-22T01:50:41.799Z,-2.64
2022-12-22T01:53:36.757Z,-2.61
2022-12-22T01:56:25.160Z,-2.62
2022-12-22T01:59:19.673Z,-2.60
2022-12-22T02:02:07.197Z,-2.61
2022-12-22T02:05:00.249Z,-2.57
2022-12-22T02:08:20.788Z,-2.59
2022-12-22T02:11:13.922Z,-2.59
2022-12-22T02:14:21.540Z,-2.60
2022-12-22T02:17:32.731Z,-2.58
2022-12-22T02:20:30.776Z,-2.55
2022-12-22T02:23:58.354Z,-2.56
2022-12-22T02:27:04.719Z,-2.59
2022-12-22T02:29:56.600Z,-2.59
2022-12-22T02:32:45.149Z,-2.65
2022-12-22T02:35:35.778Z,-2.65
2022-12-22T02:38:46.765Z,-2.67
2022-12-22T02:42:17.082Z,-2.68
2022-12-22T02:45:06.920Z,-2.70
2022-12-22T02:48:08.989Z,-2.71
2022-12-22T02:51:04.419Z,-2.72
2022-12-22T02:53:52.495Z,-2.73
2022-12-22T02:56:39.935Z,-2.74
2022-12-22T02:59:26.707Z,-2.78
2022-12-22T03:02:14.301Z,-2.77
2022-12-22T03:05:01.292Z,-2.83
2022-12-22T03:07:48.108Z,-2.87
2022-12-22T03:10:35.196Z,-2.92
2022-12-22T03:13:22.072Z,-2.95
2022-12-22T03:16:11.316Z,-2.93
2022-12-22T03:18:58.867Z,-2.95
2022-12-22T03:21:45.883Z,-2.92
2022-12-22T03:24:33.383Z,-2.94
2022-12-22T03:27:02.023Z,-2.93
2022-12-22T03:29:30.662Z,-2.95
2022-12-22T03:31:59.383Z,-2.95
2022-12-22T03:34:28.132Z,-2.93
2022-12-22T03:36:56.714Z,-2.94
2022-12-22T03:39:25.303Z,-2.95
2022-12-22T03:42:12.611Z,-2.94
2022-12-22T03:44:59.802Z,-2.95
2022-12-22T03:47:28.391Z,-2.93
2022-12-22T03:49:57.014Z,-2.94
2022-12-22T03:52:25.961Z,-2.96
2022-12-22T03:54:54.469Z,-2.98
2022-12-22T03:57:22.995Z,-2.99
2022-12-22T03:59:53.560Z,-3.02
2022-12-22T04:02:22.268Z,-3.03
2022-12-22T04:04:50.861Z,-3.09
2022-12-22T04:07:19.459Z,-3.08
2022-12-22T04:10:34.844Z,-3.11
2022-12-22T04:13:03.509Z,-3.10
2022-12-22T04:15:33.192Z,-3.12
2022-12-22T04:18:01.872Z,-3.17
2022-12-22T04:20:30.509Z,-3.20
2022-12-22T04:23:01.760Z,-3.21
2022-12-22T04:25:30.401Z,-3.23
2022-12-22T04:27:58.916Z,-3.22
2022-12-22T04:30:27.469Z,-3.25
2022-12-22T04:32:55.962Z,-3.25
2022-12-22T04:35:24.571Z,-3.26
2022-12-22T04:37:53.196Z,-3.24
2022-12-22T04:40:21.805Z,-3.29
2022-12-22T04:42:50.497Z,-3.31
2022-12-22T04:45:19.048Z,-3.31
2022-12-22T04:47:47.762Z,-3.27
2022-12-22T04:50:16.754Z,-3.28
2022-12-22T04:52:45.539Z,-3.28
2022-12-22T04:55:14.222Z,-3.32
2022-12-22T04:57:42.704Z,-3.31
2022-12-22T05:00:12.295Z,-3.30
2022-12-22T05:02:41.159Z,-3.30
2022-12-22T05:05:10.229Z,-3.30
2022-12-22T05:07:38.820Z,-3.29
2022-12-22T05:10:08.683Z,-3.25
2022-12-22T05:12:55.286Z,-3.31
2022-12-22T05:15:30.033Z,-3.29
2022-12-22T05:18:00.688Z,-3.28
2022-12-22T05:20:29.542Z,-3.26
2022-12-22T05:22:58.322Z,-3.29
2022-12-22T05:25:32.902Z,-3.28
2022-12-22T05:28:03.680Z,-3.29
2022-12-22T05:30:32.352Z,-3.28
2022-12-22T05:33:01.034Z,-3.31
2022-12-22T05:35:29.768Z,-3.31
2022-12-22T05:37:58.537Z,-3.35
2022-12-22T05:40:27.581Z,-3.32
2022-12-22T05:42:56.306Z,-3.31
2022-12-22T05:45:27.000Z,-3.34
2022-12-22T05:47:55.787Z,-3.34
2022-12-22T05:50:26.484Z,-3.33
2022-12-22T05:53:07.972Z,-3.31
2022-12-22T05:55:37.253Z,-3.27
2022-12-22T05:58:06.486Z,-3.24
2022-12-22T06:00:35.146Z,-3.28
2022-12-22T06:03:04.319Z,-3.27
2022-12-22T06:05:33.217Z,-3.26
2022-12-22T06:08:01.850Z,-3.26
2022-12-22T06:10:30.931Z,-3.26
2022-12-22T06:12:59.799Z,-3.23
2022-12-22T06:15:28.774Z,-3.21
2022-12-22T06:17:59.365Z,-3.20
2022-12-22T06:20:28.260Z,-3.19
2022-12-22T06:22:57.599Z,-3.20
2022-12-22T06:25:26.558Z,-3.17
2022-12-22T06:27:55.528Z,-3.20
2022-12-22T06:30:31.010Z,-3.14
2022-12-22T06:33:02.165Z,-3.10
2022-12-22T06:35:30.992Z,-3.07
2022-12-22T06:37:59.694Z,-3.05
2022-12-22T06:40:28.581Z,-3.00
2022-12-22T06:43:10.268Z,-2.98
2022-12-22T06:45:44.598Z,-2.98
2022-12-22T06:48:13.826Z,-2.94
2022-12-22T06:50:42.635Z,-2.94
2022-12-22T06:53:12.165Z,-2.86
2022-12-22T06:55:40.995Z,-2.79
2022-12-22T06:58:10.936Z,-2.74
2022-12-22T07:00:39.645Z,-2.74
2022-12-22T07:03:08.657Z,-2.74
2022-12-22T07:05:37.655Z,-2.72
2022-12-22T07:08:09.122Z,-2.71
2022-12-22T07:10:57.045Z,-2.60
2022-12-22T07:13:32.059Z,-2.59
2022-12-22T07:16:03.154Z,-2.60
2022-12-22T07:18:37.555Z,-2.56
2022-12-22T07:21:10.209Z,-2.55
2022-12-22T07:23:40.235Z,-2.54
2022-12-22T07:26:11.023Z,-2.55
2022-12-22T07:28:41.956Z,-2.54
2022-12-22T07:31:12.496Z,-2.50
2022-12-22T07:33:41.524Z,-2.48
2022-12-22T07:36:19.604Z,-2.46
2022-12-22T07:38:51.470Z,-2.42
2022-12-22T07:42:07.550Z,-2.38
2022-12-22T07:44:36.448Z,-2.36
2022-12-22T07:47:05.430Z,-2.34
2022-12-22T07:49:52.659Z,-2.28
2022-12-22T07:52:21.545Z,-2.21
2022-12-22T07:54:50.395Z,-2.18
2022-12-22T07:57:19.245Z,-2.20
2022-12-22T07:59:48.602Z,-2.21
2022-12-22T08:02:17.520Z,-2.15
2022-12-22T08:04:46.687Z,-2.08
2022-12-22T21:53:39.358Z,-2.62
2022-12-22T21:56:19.452Z,-2.64
2022-12-22T21:58:48.022Z,-2.62
2022-12-22T22:01:16.752Z,-2.53
2022-12-22T22:03:45.757Z,-2.57
2022-12-22T22:06:14.500Z,-2.61
2022-12-22T22:08:43.071Z,-2.62
2022-12-22T22:11:23.806Z,-2.65
2022-12-22T22:13:53.388Z,-2.74
2022-12-22T22:16:22.264Z,-2.74
2022-12-22T22:18:51.010Z,-2.74
2022-12-22T22:21:19.623Z,-2.79
2022-12-22T22:23:48.224Z,-2.85
2022-12-22T22:26:16.803Z,-2.84
2022-12-22T22:28:45.471Z,-2.83
2022-12-22T22:31:14.224Z,-2.82
2022-12-22T22:33:42.777Z,-2.85
2022-12-22T22:36:11.443Z,-2.89
2022-12-22T22:38:40.222Z,-2.92
2022-12-22T22:41:09.087Z,-2.94
2022-12-22T22:43:37.723Z,-2.92
2022-12-22T22:46:06.593Z,-2.92
2022-12-22T22:48:35.295Z,-2.97
2022-12-22T22:51:03.995Z,-2.98
2022-12-22T22:53:32.814Z,-2.99
2022-12-22T22:56:02.947Z,-3.03
2022-12-22T22:58:31.612Z,-3.06
2022-12-22T23:01:09.943Z,-3.08
2022-12-22T23:03:38.650Z,-3.10
2022-12-22T23:06:11.751Z,-3.08
2022-12-22T23:08:40.282Z,-3.10
2022-12-22T23:11:15.142Z,-3.13
2022-12-22T23:13:44.153Z,-3.17
2022-12-22T23:16:12.960Z,-3.28
2022-12-22T23:18:42.660Z,-3.35
2022-12-22T23:21:12.202Z,-3.39
2022-12-22T23:23:40.852Z,-3.44
2022-12-22T23:26:09.447Z,-3.46
2022-12-22T23:28:39.074Z,-3.46
2022-12-22T23:31:12.860Z,-3.53
2022-12-22T23:33:41.369Z,-3.51
2022-12-22T23:36:10.114Z,-3.51
2022-12-22T23:38:38.705Z,-3.49
2022-12-22T23:41:11.702Z,-3.46
2022-12-22T23:43:40.977Z,-3.52
2022-12-22T23:46:16.331Z,-3.51
2022-12-22T23:48:49.910Z,-3.47
2022-12-22T23:51:18.540Z,-3.49
2022-12-22T23:53:47.230Z,-3.46
2022-12-22T23:56:16.421Z,-3.49
2022-12-22T23:58:48.229Z,-3.48
